Terminal Aerodrome Forecast
Issued by NWS

Current Version | Previous Version | Text Only | Print | Product List | Glossary On
Versions: 1 2 3 4 5 6 7 8 9 10 11 12 13 14 15 16 17 18 19 20 21 22 23
000
FTUS41 KPBZ 102300
TAFDUJ
TAF
KDUJ 102320Z 1100/1124 36003KT P6SM SCT050
     FM110600 VRB03KT 1 1/2SM BR SCT250
     FM110800 00000KT 1/2SM FG VV002
     FM111300 08004KT P6SM SCT050=

USA.gov is the U.S. government's official web portal to all federal, state and local government web resources and services.